Time;durP1;ratioP1;P1;durP2;ratioP2;P2;SDS_P1;SDS_P2;PMS_P1;PMS_P2;Temp;Humidity;BMP_temperature;BMP_pressure;BME280_temperature;BME280_humidity;BME280_pressure;Samples;Min_cycle;Max_cycle;Signal;HPM_P1;HPM_P2
2023/09/06 00:01:05;;;;;;;0.50;0.50;;;;;;;16.34;75.72;100348.50;5076246;28;20392;-69
2023/09/06 00:03:37;;;;;;;1.15;0.77;;;;;;;16.36;75.82;100351.91;5076283;28;20041;-69
2023/09/06 00:06:06;;;;;;;1.13;1.02;;;;;;;16.27;75.46;100346.88;5076465;28;20396;-69
2023/09/06 00:08:35;;;;;;;1.38;0.95;;;;;;;16.25;75.70;100358.91;5076147;28;20047;-69
2023/09/06 00:11:06;;;;;;;2.27;1.27;;;;;;;16.27;75.67;100358.03;5076035;28;20045;-69
2023/09/06 00:13:36;;;;;;;0.43;0.43;;;;;;;16.24;75.53;100363.25;5076072;28;20040;-69
2023/09/06 00:16:07;;;;;;;;;;;;;;;16.26;75.54;100360.63;5076332;28;20048;-69
2023/09/06 00:18:37;;;;;;;1.02;0.93;;;;;;;16.26;75.30;100360.63;5075985;28;19970;-69
2023/09/06 00:21:07;;;;;;;0.50;0.50;;;;;;;16.25;75.05;100364.06;5075863;28;20071;-69
2023/09/06 00:23:35;;;;;;;0.73;0.73;;;;;;;16.22;75.26;100362.38;5075839;28;20045;-69
2023/09/06 00:26:04;;;;;;;0.43;0.43;;;;;;;16.13;75.45;100374.53;5075019;28;20041;-69
2023/09/06 00:28:33;;;;;;;0.60;0.60;;;;;;;16.02;75.35;100362.66;5075775;28;20074;-69
2023/09/06 00:31:02;;;;;;;0.70;0.70;;;;;;;15.98;75.70;100365.28;5074503;28;20068;-69
2023/09/06 00:33:35;;;;;;;0.40;0.40;;;;;;;15.92;75.79;100361.03;5075458;28;20495;-69
2023/09/06 00:36:06;;;;;;;0.68;0.68;;;;;;;16.01;75.87;100368.66;5075511;28;20056;-69
2023/09/06 00:38:36;;;;;;;0.68;0.68;;;;;;;16.04;75.51;100360.03;5075586;28;20136;-69
2023/09/06 00:41:05;;;;;;;0.75;0.50;;;;;;;16.05;75.86;100357.44;5074253;28;20041;-69
2023/09/06 00:43:34;;;;;;;1.07;0.97;;;;;;;16.08;75.51;100351.41;5075501;28;20048;-69
2023/09/06 00:46:07;;;;;;;0.50;0.50;;;;;;;16.07;75.58;100350.56;5075696;28;20458;-69
2023/09/06 00:48:37;;;;;;;0.50;0.50;;;;;;;16.05;75.34;100352.28;5075418;28;20088;-69
2023/09/06 00:51:08;;;;;;;0.60;0.60;;;;;;;16.04;75.73;100353.19;5075718;28;20135;-69
2023/09/06 00:53:37;;;;;;;0.80;0.80;;;;;;;16.00;75.61;100354.06;5075315;28;20138;-69
2023/09/06 00:56:08;;;;;;;2.38;1.58;;;;;;;16.01;75.91;100355.78;5075126;28;20073;-69
2023/09/06 00:58:38;;;;;;;1.75;0.63;;;;;;;16.00;76.00;100359.22;5075298;28;20036;-70
2023/09/06 01:01:08;;;;;;;1.17;0.95;;;;;;;15.96;76.04;100352.41;5075171;28;20056;-69
2023/09/06 01:03:41;;;;;;;1.02;0.90;;;;;;;15.98;76.23;100355.81;5075056;28;20074;-69
2023/09/06 01:06:17;;;;;;;1.55;0.95;;;;;;;15.93;76.05;100357.59;5075081;28;20044;-69
2023/09/06 01:08:52;;;;;;;0.88;0.88;;;;;;;15.98;75.99;100360.97;5073850;28;20055;-69
2023/09/06 01:11:23;;;;;;;0.80;0.80;;;;;;;15.99;76.38;100352.38;5074969;28;20049;-69
2023/09/06 01:13:53;;;;;;;1.13;0.80;;;;;;;15.97;75.98;100364.41;5073933;28;20049;-69
2023/09/06 01:16:29;;;;;;;1.90;1.25;;;;;;;15.95;76.21;100361.03;5073602;28;20052;-69
2023/09/06 01:18:59;;;;;;;0.60;0.60;;;;;;;15.93;76.03;100360.16;5073638;28;20052;-69
2023/09/06 01:21:36;;;;;;;0.55;0.55;;;;;;;15.86;76.27;100361.09;5075009;28;20079;-69
2023/09/06 01:24:09;;;;;;;0.95;0.90;;;;;;;15.85;76.49;100364.56;5073693;28;20438;-69
2023/09/06 01:26:38;;;;;;;0.55;0.55;;;;;;;15.85;76.69;100369.72;5073465;28;20090;-69
2023/09/06 01:29:07;;;;;;;1.25;1.15;;;;;;;15.79;76.98;100368.91;5073346;28;20032;-69
2023/09/06 01:31:36;;;;;;;1.02;0.93;;;;;;;15.73;77.03;100369.84;5073278;28;20123;-69
2023/09/06 01:34:05;;;;;;;0.75;0.75;;;;;;;15.75;76.78;100382.69;5074226;28;20408;-69
2023/09/06 01:36:34;;;;;;;1.67;0.93;;;;;;;15.78;77.30;100370.66;5074213;28;20040;-69
2023/09/06 01:39:06;;;;;;;1.40;0.90;;;;;;;15.74;77.11;100376.69;5074340;28;20060;-69
2023/09/06 01:41:37;;;;;;;0.50;0.50;;;;;;;15.66;77.50;100370.78;5073160;28;20745;-69
2023/09/06 01:44:07;;;;;;;0.40;0.40;;;;;;;15.59;77.54;100374.28;5073369;28;20048;-69
2023/09/06 01:46:37;;;;;;;1.40;1.13;;;;;;;15.67;77.25;100372.47;5074554;28;20504;-69
2023/09/06 01:49:09;;;;;;;1.30;0.98;;;;;;;15.72;77.03;100373.28;5074318;28;20053;-69
2023/09/06 01:51:38;;;;;;;1.27;0.85;;;;;;;15.76;77.01;100369.81;5074164;28;20041;-69
2023/09/06 01:54:10;;;;;;;0.82;0.77;;;;;;;15.78;76.63;100362.94;5074061;28;20060;-69
2023/09/06 01:56:41;;;;;;;5.40;2.35;;;;;;;15.76;76.81;100364.66;5072969;28;20032;-69
2023/09/06 01:59:10;;;;;;;0.60;0.60;;;;;;;15.72;76.83;100362.97;5074033;28;20044;-69
2023/09/06 02:01:40;;;;;;;2.17;1.23;;;;;;;15.60;76.80;100367.38;5072861;28;20099;-69
2023/09/06 02:04:10;;;;;;;2.03;0.82;;;;;;;15.60;76.81;100368.25;5072885;28;20052;-69
2023/09/06 02:06:39;;;;;;;0.60;0.60;;;;;;;15.66;77.08;100362.19;5073986;28;20403;-69
2023/09/06 02:09:08;;;;;;;0.60;0.50;;;;;;;15.64;76.69;100349.34;5074134;28;20039;-69
2023/09/06 02:11:37;;;;;;;0.63;0.63;;;;;;;15.60;76.94;100347.66;5073891;28;20079;-69
2023/09/06 02:14:07;;;;;;;0.93;0.80;;;;;;;15.61;76.83;100353.66;5072803;28;20373;-69
2023/09/06 02:16:37;;;;;;;0.88;0.73;;;;;;;15.59;76.91;100345.97;5073735;28;20063;-69
2023/09/06 02:19:06;;;;;;;0.65;0.65;;;;;;;15.53;76.77;100340.88;5073772;28;20136;-70
2023/09/06 02:21:38;;;;;;;0.52;0.52;;;;;;;15.56;76.41;100348.56;5073716;28;20072;-69
2023/09/06 02:24:08;;;;;;;0.77;0.77;;;;;;;15.55;76.58;100344.28;5072793;28;20385;-69
2023/09/06 02:26:38;;;;;;;0.45;0.45;;;;;;;15.55;76.55;100344.28;5073921;28;20068;-69
2023/09/06 02:29:08;;;;;;;1.02;1.02;;;;;;;15.55;76.85;100344.28;5073590;28;20051;-69
2023/09/06 02:31:38;;;;;;;0.55;0.55;;;;;;;15.54;76.85;100336.59;5072711;28;20416;-70
2023/09/06 02:34:08;;;;;;;0.70;0.70;;;;;;;15.53;76.78;100338.31;5073383;28;20057;-70
2023/09/06 02:36:37;;;;;;;0.73;0.73;;;;;;;15.45;76.62;100337.53;5073371;28;20047;-69
2023/09/06 02:39:07;;;;;;;0.40;0.40;;;;;;;15.42;77.24;100337.53;5073461;28;20121;-70
2023/09/06 02:41:35;;;;;;;0.93;0.80;;;;;;;15.47;76.89;100338.38;5072261;28;20496;-70
2023/09/06 02:44:06;;;;;;;1.58;1.48;;;;;;;15.47;77.20;100346.09;5072520;28;20474;-70
2023/09/06 02:46:36;;;;;;;;;;;;;;;15.45;76.81;100347.84;5072953;28;20659;-70
2023/09/06 02:49:12;;;;;;;0.70;0.70;;;;;;;15.45;76.71;100345.25;5072865;28;20371;-70
2023/09/06 02:51:43;;;;;;;0.65;0.65;;;;;;;15.48;76.64;100342.63;5073436;28;20545;-70
2023/09/06 02:54:12;;;;;;;1.33;0.90;;;;;;;15.49;76.79;100340.94;5073358;28;20129;-70
2023/09/06 02:56:41;;;;;;;1.83;1.15;;;;;;;15.49;76.59;100358.94;5072099;28;20408;-70
2023/09/06 02:59:12;;;;;;;0.53;0.53;;;;;;;15.35;76.68;100356.47;5073361;28;20041;-70
2023/09/06 03:01:45;;;;;;;0.55;0.55;;;;;;;15.24;77.31;100364.25;5072199;28;20273;-69
2023/09/06 03:04:15;;;;;;;0.38;0.38;;;;;;;15.17;77.80;100362.63;5073536;28;20063;-70
2023/09/06 03:06:44;;;;;;;0.68;0.68;;;;;;;15.14;77.51;100366.94;5072264;28;20048;-70
2023/09/06 03:09:15;;;;;;;1.15;0.93;;;;;;;15.05;77.72;100372.13;5073235;28;20053;-69
2023/09/06 03:11:44;;;;;;;0.90;0.87;;;;;;;15.12;77.91;100368.66;5073151;28;20045;-70
2023/09/06 03:14:17;;;;;;;0.43;0.43;;;;;;;15.15;77.88;100368.63;5073164;28;20361;-70
2023/09/06 03:16:53;;;;;;;0.73;0.63;;;;;;;15.10;77.49;100375.53;5071818;28;20040;-70
2023/09/06 03:19:23;;;;;;;1.30;1.05;;;;;;;14.92;77.78;100370.53;5073396;28;20076;-70
2023/09/06 03:21:55;;;;;;;0.50;0.50;;;;;;;14.74;78.40;100367.22;5073084;28;20098;-69
2023/09/06 03:24:25;;;;;;;0.52;0.52;;;;;;;14.58;78.67;100373.34;5073331;28;20123;-69
2023/09/06 03:26:54;;;;;;;0.50;0.50;;;;;;;14.53;78.68;100377.66;5072961;28;20056;-69
2023/09/06 03:29:24;;;;;;;5.32;1.45;;;;;;;14.49;78.59;100375.94;5072091;28;20032;-70
2023/09/06 03:31:55;;;;;;;0.35;0.35;;;;;;;14.42;79.31;100384.53;5073368;28;20114;-69
2023/09/06 03:34:26;;;;;;;0.82;0.80;;;;;;;14.41;79.14;100387.13;5071588;28;20399;-69
2023/09/06 03:36:55;;;;;;;1.00;0.95;;;;;;;14.40;79.56;100383.69;5072071;28;20041;-70
2023/09/06 03:39:28;;;;;;;0.70;0.70;;;;;;;14.35;80.06;100377.72;5072056;28;20041;-69
2023/09/06 03:42:00;;;;;;;2.00;0.88;;;;;;;14.32;79.88;100376.91;5073651;28;20379;-69
2023/09/06 03:44:31;;;;;;;0.82;0.82;;;;;;;14.30;80.46;100379.47;5073472;28;20407;-69
2023/09/06 03:47:05;;;;;;;0.65;0.65;;;;;;;14.30;80.36;100379.47;5071635;28;20124;-69
2023/09/06 03:49:35;;;;;;;0.50;0.50;;;;;;;14.32;80.42;100377.75;5071659;28;20056;-70
2023/09/06 03:52:05;;;;;;;0.60;0.60;;;;;;;14.26;80.61;100376.88;5073085;28;20422;-70
2023/09/06 03:54:34;;;;;;;;;;;;;;;14.27;80.85;100379.47;5071957;28;20049;-69
2023/09/06 03:57:03;;;;;;;1.90;1.30;;;;;;;14.27;80.95;100384.59;5072911;28;20023;-70
2023/09/06 03:59:35;;;;;;;0.73;0.70;;;;;;;14.31;80.81;100385.44;5072203;28;20043;-70
2023/09/06 04:02:13;;;;;;;0.65;0.65;;;;;;;14.29;80.66;100382.00;5076300;28;20106;-70
2023/09/06 04:04:44;;;;;;;0.70;0.70;;;;;;;14.32;80.93;100382.03;5076502;28;20052;-70
2023/09/06 04:07:14;;;;;;;1.33;1.23;;;;;;;14.47;80.82;100381.94;5076143;28;20040;-69
2023/09/06 04:09:42;;;;;;;0.70;0.70;;;;;;;14.47;80.84;100382.81;5076037;28;20044;-70
2023/09/06 04:12:11;;;;;;;1.80;0.97;;;;;;;14.56;80.64;100382.78;5076127;28;20037;-70
2023/09/06 04:14:40;;;;;;;1.05;0.75;;;;;;;14.67;80.13;100391.25;5075155;28;20131;-70
2023/09/06 04:17:12;;;;;;;0.52;0.52;;;;;;;14.70;80.24;100380.97;5075986;28;20086;-70
2023/09/06 04:19:41;;;;;;;0.50;0.50;;;;;;;14.72;79.61;100381.81;5075997;28;20111;-70
2023/09/06 04:22:12;;;;;;;0.67;0.67;;;;;;;14.78;79.60;100381.75;5075056;28;20396;-70
2023/09/06 04:24:42;;;;;;;1.25;1.15;;;;;;;14.78;79.51;100381.75;5074690;28;20269;-70
2023/09/06 04:27:12;;;;;;;0.40;0.40;;;;;;;14.73;79.25;100386.06;5076154;28;20094;-70
2023/09/06 04:29:42;;;;;;;0.70;0.70;;;;;;;14.72;79.37;100381.81;5075770;28;20496;-70
2023/09/06 04:32:12;;;;;;;2.28;1.17;;;;;;;14.80;79.72;100383.47;5074473;28;20064;-70
2023/09/06 04:34:42;;;;;;;0.82;0.82;;;;;;;14.85;79.23;100382.59;5074343;28;20106;-69
2023/09/06 04:37:13;;;;;;;1.27;1.10;;;;;;;14.83;79.40;100386.03;5075099;28;20063;-70
2023/09/06 04:39:43;;;;;;;1.38;0.98;;;;;;;14.83;79.17;100391.19;5075512;28;20051;-69
2023/09/06 04:42:14;;;;;;;0.50;0.50;;;;;;;14.80;79.50;100391.19;5075495;28;20054;-70
2023/09/06 04:44:43;;;;;;;;;;;;;;;14.84;79.76;100387.72;5075912;28;20044;-70
2023/09/06 04:47:14;;;;;;;0.63;0.63;;;;;;;14.94;79.48;100384.22;5074443;28;19920;-70
2023/09/06 04:49:45;;;;;;;0.40;0.40;;;;;;;15.04;79.43;100393.59;5075655;28;20274;-69
2023/09/06 04:52:16;;;;;;;0.43;0.43;;;;;;;15.10;79.71;100391.81;5074165;28;20055;-70
2023/09/06 04:54:45;;;;;;;1.38;1.27;;;;;;;15.13;79.42;100396.09;5074096;28;20040;-70
2023/09/06 04:57:16;;;;;;;0.90;0.90;;;;;;;15.22;79.20;100396.00;5075175;28;20052;-70
2023/09/06 04:59:47;;;;;;;0.70;0.70;;;;;;;15.31;79.30;100393.34;5075107;28;20122;-69
2023/09/06 05:02:19;;;;;;;0.85;0.82;;;;;;;15.35;79.08;100400.19;5075123;28;20123;-69
2023/09/06 05:04:50;;;;;;;0.70;0.70;;;;;;;15.35;79.04;100398.47;5075060;28;20048;-70
2023/09/06 05:07:19;;;;;;;;;;;;;;;15.38;79.45;100400.16;5075681;28;20166;-70
2023/09/06 05:09:53;;;;;;;1.02;0.90;;;;;;;15.41;79.08;100398.41;5074957;28;19925;-70
2023/09/06 05:12:24;;;;;;;1.10;0.90;;;;;;;15.36;79.00;100399.31;5074936;28;20076;-70
2023/09/06 05:14:55;;;;;;;0.43;0.43;;;;;;;15.38;78.99;100400.16;5074825;28;20044;-69
2023/09/06 05:17:25;;;;;;;2.45;1.77;;;;;;;15.45;79.13;100396.72;5073644;28;20094;-68
2023/09/06 05:19:56;;;;;;;0.70;0.70;;;;;;;15.53;78.92;100407.78;5074738;28;20048;-69
2023/09/06 05:22:25;;;;;;;0.80;0.80;;;;;;;15.58;79.13;100406.00;5074961;28;20461;-69
2023/09/06 05:24:53;;;;;;;0.47;0.47;;;;;;;15.70;78.60;100400.75;5074962;28;20442;-69
2023/09/06 05:27:22;;;;;;;0.57;0.57;;;;;;;15.81;78.79;100406.63;5074832;28;20454;-70
2023/09/06 05:29:51;;;;;;;0.90;0.90;;;;;;;15.86;78.51;100404.88;5074570;28;20044;-70
2023/09/06 05:32:22;;;;;;;0.87;0.70;;;;;;;15.94;78.78;100413.38;5074482;28;20303;-69
2023/09/06 05:34:53;;;;;;;0.90;0.63;;;;;;;16.03;78.30;100410.69;5073356;28;20557;-69
2023/09/06 05:37:22;;;;;;;1.48;0.52;;;;;;;16.10;78.23;100416.63;5074895;28;20389;-70
2023/09/06 05:39:50;;;;;;;0.70;0.70;;;;;;;16.15;78.25;100409.69;5073142;28;20041;-70
2023/09/06 05:42:20;;;;;;;1.50;1.30;;;;;;;16.24;77.67;100404.47;5074556;28;20044;-70
2023/09/06 05:44:49;;;;;;;2.05;1.35;;;;;;;16.34;77.70;100400.88;5074568;28;20043;-69
2023/09/06 05:47:17;;;;;;;1.23;0.77;;;;;;;16.44;77.28;100404.19;5074232;28;20093;-70
2023/09/06 05:49:48;;;;;;;1.15;1.15;;;;;;;16.48;77.37;100413.59;5073355;28;20408;-69
2023/09/06 05:52:19;;;;;;;0.63;0.63;;;;;;;16.53;77.09;100406.69;5074100;28;20048;-70
2023/09/06 05:54:48;;;;;;;1.35;0.70;;;;;;;16.65;76.69;100411.69;5074081;28;20055;-70
2023/09/06 05:57:19;;;;;;;1.40;0.60;;;;;;;16.66;76.25;100403.06;5073066;28;20510;-68
2023/09/06 05:59:48;;;;;;;0.52;0.52;;;;;;;16.68;76.13;100409.03;5072774;28;20492;-67
2023/09/06 06:02:17;;;;;;;0.60;0.60;;;;;;;16.80;75.54;100413.16;5072968;28;20037;-69
2023/09/06 06:04:46;;;;;;;0.45;0.45;;;;;;;16.89;75.39;100413.91;5071991;28;20102;-73
2023/09/06 06:07:17;;;;;;;1.83;0.85;;;;;;;17.04;75.35;100417.97;5069446;28;20047;-69
2023/09/06 06:09:48;;;;;;;1.30;1.15;;;;;;;17.10;74.79;100416.16;5073285;28;20048;-68
2023/09/06 06:12:22;;;;;;;0.82;0.50;;;;;;;17.20;74.79;100412.53;5073839;28;20056;-68
2023/09/06 06:14:52;;;;;;;0.60;0.60;;;;;;;17.27;74.31;100419.34;5073829;28;20076;-68
2023/09/06 06:17:21;;;;;;;1.33;0.85;;;;;;;17.42;73.79;100424.22;5073194;28;20041;-68
2023/09/06 06:19:50;;;;;;;0.95;0.93;;;;;;;17.57;73.49;100423.16;5073803;28;20119;-69
2023/09/06 06:22:19;;;;;;;0.60;0.60;;;;;;;17.69;73.35;100424.66;5072856;28;20044;-67
2023/09/06 06:24:50;;;;;;;0.90;0.90;;;;;;;17.77;73.29;100425.41;5073990;28;20112;-68
2023/09/06 06:27:19;;;;;;;1.15;1.05;;;;;;;17.84;72.82;100432.16;5072784;28;20041;-68
2023/09/06 06:29:48;;;;;;;0.50;0.50;;;;;;;17.95;72.38;100425.03;5073611;28;20052;-67
2023/09/06 06:32:19;;;;;;;14.03;1.37;;;;;;;18.06;72.08;100423.97;5073754;28;20496;-67
2023/09/06 06:34:50;;;;;;;0.82;0.77;;;;;;;18.09;71.67;100430.81;5073268;28;20049;-65
2023/09/06 06:37:20;;;;;;;1.10;1.00;;;;;;;18.14;71.87;100426.41;5073223;28;20455;-66
2023/09/06 06:39:50;;;;;;;1.35;1.25;;;;;;;18.22;71.50;100424.53;5073426;28;20047;-68
2023/09/06 06:42:19;;;;;;;0.93;0.88;;;;;;;18.34;71.23;100423.41;5073723;28;20044;-67
2023/09/06 06:44:55;;;;;;;0.60;0.50;;;;;;;18.45;70.97;100426.66;5068245;28;20037;-66
2023/09/06 06:47:24;;;;;;;1.63;1.27;;;;;;;18.53;70.86;100428.22;5073372;28;20131;-66
2023/09/06 06:49:54;;;;;;;0.57;0.57;;;;;;;18.64;70.47;100428.81;5073650;28;20040;-65
2023/09/06 06:52:24;;;;;;;0.90;0.90;;;;;;;18.74;70.28;100430.34;5073688;28;20106;-65
2023/09/06 06:54:54;;;;;;;0.47;0.47;;;;;;;18.84;69.85;100430.13;5072285;28;20146;-66
2023/09/06 06:57:24;;;;;;;4.70;1.02;;;;;;;18.94;69.57;100426.44;5073110;28;20423;-67
2023/09/06 06:59:52;;;;;;;1.73;1.43;;;;;;;19.05;69.34;100424.50;5073267;28;20043;-66
2023/09/06 07:02:21;;;;;;;1.13;1.03;;;;;;;19.17;69.32;100430.19;5071846;28;20296;-67
2023/09/06 07:04:50;;;;;;;15.70;7.23;;;;;;;19.27;69.15;100431.69;5070386;28;20515;-71
2023/09/06 07:07:19;;;;;;;2.20;2.00;;;;;;;19.46;68.77;100429.53;5053314;28;20407;-66
2023/09/06 07:09:48;;;;;;;0.60;0.60;;;;;;;19.51;68.39;100426.84;5070218;28;20414;-67
2023/09/06 07:12:18;;;;;;;0.50;0.50;;;;;;;19.62;68.28;100423.09;5073094;28;20050;-67
2023/09/06 07:14:47;;;;;;;0.80;0.80;;;;;;;19.76;67.74;100433.09;5073416;28;20048;-67
2023/09/06 07:17:16;;;;;;;0.68;0.68;;;;;;;19.88;67.58;100419.81;5073075;28;20132;-67
2023/09/06 07:19:45;;;;;;;0.73;0.70;;;;;;;19.95;67.27;100417.03;5073071;28;20060;-67
2023/09/06 07:22:14;;;;;;;0.65;0.65;;;;;;;20.04;67.16;100419.34;5072289;28;20043;-67
2023/09/06 07:24:43;;;;;;;10.60;1.27;;;;;;;20.18;67.00;100410.34;5073313;28;20450;-67
2023/09/06 07:27:12;;;;;;;1.33;1.23;;;;;;;20.34;67.05;100414.25;5073063;28;20037;-67
2023/09/06 07:29:42;;;;;;;0.40;0.40;;;;;;;20.49;66.18;100408.63;5072922;28;20048;-67
2023/09/06 07:32:11;;;;;;;1.27;0.80;;;;;;;20.55;66.04;100411.00;5071867;28;20040;-67
2023/09/06 07:34:40;;;;;;;1.65;1.02;;;;;;;20.64;65.75;100413.31;5074868;28;20086;-67
2023/09/06 07:37:10;;;;;;;0.73;0.73;;;;;;;20.75;65.74;100408.69;5076683;28;20049;-68
2023/09/06 07:39:39;;;;;;;1.45;1.10;;;;;;;20.90;65.41;100415.97;5076628;28;20392;-67
2023/09/06 07:42:08;;;;;;;1.40;1.08;;;;;;;20.96;64.69;100421.00;5075444;28;20131;-67
2023/09/06 07:44:36;;;;;;;0.55;0.55;;;;;;;21.07;64.98;100418.94;5075721;28;20128;-67
2023/09/06 07:47:06;;;;;;;0.75;0.75;;;;;;;21.14;64.74;100415.25;5076395;28;20041;-67
2023/09/06 07:49:36;;;;;;;0.70;0.70;;;;;;;21.28;64.48;100415.63;5076520;28;20492;-68
2023/09/06 07:52:05;;;;;;;0.70;0.70;;;;;;;21.44;64.51;100412.53;5076481;28;20037;-67
2023/09/06 07:54:34;;;;;;;0.63;0.63;;;;;;;21.53;63.81;100412.22;5075281;28;20041;-67
2023/09/06 07:57:03;;;;;;;1.93;0.87;;;;;;;21.61;63.04;100421.47;5076344;28;20068;-66
2023/09/06 07:59:32;;;;;;;0.60;0.60;;;;;;;21.67;62.80;100415.19;5075801;28;20059;-68
2023/09/06 08:02:01;;;;;;;0.50;0.50;;;;;;;21.73;62.82;100415.88;5076554;28;20044;-67
2023/09/06 08:04:31;;;;;;;0.75;0.75;;;;;;;21.90;63.01;100410.09;5075472;28;20523;-65
2023/09/06 08:07:00;;;;;;;0.60;0.60;;;;;;;21.93;62.42;100413.44;5076607;28;20047;-67
2023/09/06 08:09:29;;;;;;;0.60;0.60;;;;;;;21.96;62.15;100412.47;5075716;28;20052;-68
2023/09/06 08:11:58;;;;;;;0.65;0.65;;;;;;;22.11;62.07;100422.34;5073612;28;20040;-68
2023/09/06 08:14:28;;;;;;;1.20;1.10;;;;;;;22.24;61.89;100415.81;5075311;28;20127;-68
2023/09/06 08:16:56;;;;;;;0.95;0.80;;;;;;;22.37;61.98;100419.63;5076211;28;20043;-68
2023/09/06 08:19:25;;;;;;;1.90;1.50;;;;;;;22.56;62.15;100415.44;5075866;28;20055;-68
2023/09/06 08:21:55;;;;;;;1.55;1.45;;;;;;;22.62;61.23;100414.41;5075170;28;20041;-68
2023/09/06 08:24:24;;;;;;;1.08;0.98;;;;;;;22.70;60.80;100411.50;5074876;28;20127;-68
2023/09/06 08:26:53;;;;;;;0.82;0.45;;;;;;;22.84;60.31;100417.03;5075870;28;20064;-69
2023/09/06 08:29:22;;;;;;;0.50;0.50;;;;;;;22.95;59.87;100412.22;5075705;28;20165;-68
2023/09/06 08:31:51;;;;;;;1.98;1.23;;;;;;;23.01;59.08;100412.81;5072581;28;20029;-68
2023/09/06 08:34:20;;;;;;;5.10;3.38;;;;;;;23.10;58.64;100406.41;5073288;28;20052;-69
2023/09/06 08:36:50;;;;;;;1.38;1.15;;;;;;;23.19;58.05;100413.84;5072273;28;20415;-68
2023/09/06 08:39:21;;;;;;;0.70;0.70;;;;;;;23.18;58.02;100419.97;5075253;28;20036;-68
2023/09/06 08:41:50;;;;;;;0.50;0.50;;;;;;;23.27;57.44;100417.81;5075493;28;20499;-68
2023/09/06 08:44:20;;;;;;;1.08;0.73;;;;;;;23.29;56.97;100413.44;5075475;28;20496;-69
2023/09/06 08:46:53;;;;;;;2.50;0.98;;;;;;;23.56;57.10;100413.22;5073622;28;20048;-70
2023/09/06 08:49:23;;;;;;;0.40;0.40;;;;;;;23.74;56.91;100405.47;5075454;28;20136;-70
2023/09/06 08:51:52;;;;;;;;;;;;;;;23.86;56.21;100402.31;5075646;28;20569;-69
2023/09/06 08:54:24;;;;;;;0.73;0.73;;;;;;;23.94;55.67;100405.47;5075602;28;19921;-70
2023/09/06 08:56:53;;;;;;;0.77;0.70;;;;;;;23.98;55.41;100404.41;5074724;28;20086;-69
2023/09/06 08:59:23;;;;;;;0.60;0.60;;;;;;;24.02;54.58;100407.69;5073912;28;20044;-70
2023/09/06 09:01:52;;;;;;;1.05;0.60;;;;;;;24.07;54.50;100403.16;5074215;28;20047;-70
2023/09/06 09:04:22;;;;;;;0.85;0.80;;;;;;;24.20;54.72;100400.84;5055046;28;20061;-69
2023/09/06 09:06:51;;;;;;;1.50;0.77;;;;;;;24.36;55.38;100404.47;5055098;28;20041;-70
2023/09/06 09:09:20;;;;;;;1.25;1.15;;;;;;;24.42;54.64;100396.38;5054963;28;20049;-69
2023/09/06 09:11:51;;;;;;;;;;;;;;;24.50;54.06;100396.84;5055306;28;20132;-69
2023/09/06 09:14:21;;;;;;;1.17;1.05;;;;;;;24.51;52.85;100401.16;5071145;28;19970;-69
2023/09/06 09:17:01;;;;;;;1.10;0.98;;;;;;;24.65;53.12;100396.13;5073340;28;20039;-69
2023/09/06 09:19:30;;;;;;;1.33;1.23;;;;;;;24.72;52.56;100394.94;5074765;28;20144;-69
2023/09/06 09:21:58;;;;;;;0.60;0.60;;;;;;;24.72;52.35;100392.31;5074048;28;20119;-70
2023/09/06 09:24:29;;;;;;;0.85;0.77;;;;;;;24.78;52.42;100386.84;5055135;28;20033;-68
2023/09/06 09:26:59;;;;;;;2.33;0.95;;;;;;;24.87;52.19;100383.78;5054646;28;20041;-68
2023/09/06 09:29:29;;;;;;;0.60;0.60;;;;;;;24.99;52.09;100390.19;5054930;28;20127;-69
2023/09/06 09:32:04;;;;;;;1.20;1.02;;;;;;;25.23;51.68;100383.75;5054163;28;20056;-73
2023/09/06 09:34:33;;;;;;;0.70;0.70;;;;;;;25.44;51.27;100384.44;5054277;28;20049;-69
2023/09/06 09:37:05;;;;;;;0.50;0.50;;;;;;;25.33;50.85;100381.53;5054330;28;20037;-68
2023/09/06 09:39:34;;;;;;;5.88;1.13;;;;;;;25.27;50.01;100388.75;5054259;28;20045;-69
2023/09/06 09:42:05;;;;;;;0.80;0.80;;;;;;;25.43;50.26;100385.38;5053933;28;20045;-69
2023/09/06 09:44:34;;;;;;;0.55;0.55;;;;;;;25.58;49.89;100384.66;5054228;28;20136;-69
2023/09/06 09:47:11;;;;;;;0.68;0.68;;;;;;;25.58;49.66;100382.84;5054129;28;20037;-69
2023/09/06 09:50:02;;;;;;;8.30;7.53;;;;;;;25.66;50.11;100379.84;5066560;28;20511;-68
2023/09/06 09:52:32;;;;;;;3.30;2.38;;;;;;;25.73;49.65;100384.69;5070720;28;20040;-68
2023/09/06 09:55:04;;;;;;;0.50;0.50;;;;;;;25.70;48.70;100378.75;5073022;28;20051;-68
2023/09/06 09:57:35;;;;;;;1.10;1.00;;;;;;;25.70;48.70;100373.53;5074162;28;20052;-69
2023/09/06 10:00:09;;;;;;;1.02;0.93;;;;;;;25.84;48.93;100378.91;5072551;28;20087;-69
2023/09/06 10:02:42;;;;;;;0.60;0.60;;;;;;;26.12;49.45;100373.94;5073331;28;20051;-69
2023/09/06 10:05:16;;;;;;;0.77;0.75;;;;;;;26.32;49.81;100365.03;5053894;28;20060;-69
2023/09/06 10:07:49;;;;;;;1.25;0.80;;;;;;;26.57;49.95;100363.56;5054446;28;20399;-71
2023/09/06 10:10:19;;;;;;;1.35;1.25;;;;;;;26.53;49.28;100371.69;5053837;28;20051;-71
2023/09/06 10:12:51;;;;;;;0.80;0.80;;;;;;;26.41;47.36;100373.22;5058233;28;20067;-71
2023/09/06 10:15:23;;;;;;;0.98;0.90;;;;;;;26.42;47.09;100374.03;5073719;28;20504;-72
2023/09/06 10:17:56;;;;;;;0.40;0.40;;;;;;;26.49;47.13;100371.00;5073779;28;20592;-70
2023/09/06 10:20:26;;;;;;;0.40;0.40;;;;;;;26.55;46.77;100360.19;5073892;28;20048;-71
2023/09/06 10:22:57;;;;;;;0.50;0.50;;;;;;;26.69;46.10;100366.44;5072833;28;20127;-71
2023/09/06 10:25:27;;;;;;;0.80;0.60;;;;;;;26.87;46.14;100360.22;5074054;28;20161;-71
2023/09/06 10:27:59;;;;;;;0.47;0.47;;;;;;;26.95;46.45;100363.22;5073753;28;20032;-71
2023/09/06 10:30:43;;;;;;;1.05;0.95;;;;;;;27.18;47.35;100368.00;5072265;28;20079;-72
2023/09/06 10:33:41;;;;;;;0.60;0.60;;;;;;;27.09;46.36;100365.91;5073817;28;20052;-72
2023/09/06 10:36:13;;;;;;;0.82;0.65;;;;;;;27.34;46.30;100360.91;5073567;28;20060;-72
2023/09/06 10:39:15;;;;;;;0.65;0.63;;;;;;;27.35;45.79;100361.75;5070626;28;20045;-71
2023/09/06 10:42:05;;;;;;;0.43;0.43;;;;;;;27.49;44.95;100359.19;5069056;28;20041;-70
2023/09/06 10:45:00;;;;;;;1.45;0.73;;;;;;;27.52;45.14;100359.84;5065321;28;20036;-71
2023/09/06 10:47:33;;;;;;;0.63;0.55;;;;;;;27.68;45.42;100357.16;5068976;28;20511;-71
2023/09/06 10:50:19;;;;;;;0.75;0.75;;;;;;;27.92;46.19;100353.91;5072154;28;20080;-71
2023/09/06 10:52:53;;;;;;;0.60;0.60;;;;;;;27.89;45.28;100359.34;5073334;28;20044;-71
2023/09/06 10:55:25;;;;;;;0.40;0.40;;;;;;;27.88;45.11;100356.81;5073446;28;20484;-69
2023/09/06 10:58:08;;;;;;;0.60;0.60;;;;;;;27.85;45.43;100351.75;5071252;28;20044;-70
2023/09/06 11:00:37;;;;;;;0.40;0.40;;;;;;;27.65;44.70;100350.31;5073537;28;20404;-72
2023/09/06 11:03:22;;;;;;;0.93;0.80;;;;;;;27.62;44.97;100347.03;5071754;28;20500;-71
2023/09/06 11:05:58;;;;;;;1.20;0.77;;;;;;;27.85;45.73;100342.09;5053440;28;20049;-71
2023/09/06 11:08:32;;;;;;;0.95;0.77;;;;;;;28.01;45.43;100347.25;5071744;28;20036;-70
2023/09/06 11:11:04;;;;;;;0.93;0.88;;;;;;;27.96;44.31;100343.19;5057219;28;20045;-71
2023/09/06 11:13:33;;;;;;;0.95;0.85;;;;;;;28.00;44.75;100339.50;5061044;28;20124;-71
2023/09/06 11:16:03;;;;;;;0.40;0.40;;;;;;;28.25;46.26;100339.63;5077219;28;20123;-71
2023/09/06 11:18:44;;;;;;;0.57;0.57;;;;;;;28.23;44.86;100338.91;5077271;28;20056;-71
2023/09/06 11:21:17;;;;;;;0.50;0.50;;;;;;;28.29;44.32;100328.84;5077088;28;20124;-70
2023/09/06 11:23:48;;;;;;;0.50;0.50;;;;;;;28.18;43.95;100330.47;5076808;28;20068;-71
2023/09/06 11:26:18;;;;;;;0.80;0.80;;;;;;;28.14;43.75;100326.34;5076997;28;20053;-71
2023/09/06 11:28:47;;;;;;;0.82;0.80;;;;;;;28.25;43.25;100329.97;5074038;28;20041;-71
2023/09/06 11:31:25;;;;;;;0.50;0.50;;;;;;;28.46;43.25;100317.25;5074401;28;20033;-71
2023/09/06 11:34:04;;;;;;;0.50;0.50;;;;;;;28.68;43.36;100317.59;5074691;28;20053;-72
2023/09/06 11:36:36;;;;;;;0.43;0.43;;;;;;;28.77;43.73;100316.97;5076771;28;20492;-72
2023/09/06 11:39:15;;;;;;;0.60;0.60;;;;;;;28.84;43.15;100313.00;5074498;28;20044;-72
2023/09/06 11:41:44;;;;;;;;;;;;;;;28.75;42.12;100308.34;5057334;28;20485;-70
2023/09/06 11:44:14;;;;;;;1.27;0.40;;;;;;;28.83;41.71;100311.34;5056603;28;19920;-71